Time;durP1;ratioP1;P1;durP2;ratioP2;P2;SDS_P1;SDS_P2;PMS_P1;PMS_P2;Temp;Humidity;BMP_temperature;BMP_pressure;BME280_temperature;BME280_humidity;BME280_pressure;Samples;Min_cycle;Max_cycle;Signal;HPM_P1;HPM_P2
2023/05/27 00:00:11;;;;;;;35.83;6.47;;;;;;;;;;5036160;28;20025;-77
2023/05/27 00:02:38;;;;;;;40.55;7.78;;;;;;;;;;5028435;28;20067;-77
2023/05/27 00:05:04;;;;;;;37.20;7.32;;;;;;;;;;5035278;28;20068;-76
2023/05/27 00:07:31;;;;;;;31.88;7.25;;;;;;;;;;5035246;28;20021;-74
2023/05/27 00:09:57;;;;;;;35.33;5.95;;;;;;;;;;5035050;28;20037;-74
2023/05/27 00:12:23;;;;;;;36.05;7.03;;;;;;;;;;5034912;28;20025;-74
2023/05/27 00:14:49;;;;;;;28.35;6.35;;;;;;;;;;5035124;28;20498;-75
2023/05/27 00:17:15;;;;;;;30.35;6.60;;;;;;;;;;5035362;28;20025;-75
2023/05/27 00:19:42;;;;;;;39.08;7.25;;;;;;;;;;5035014;28;20022;-77
2023/05/27 00:22:08;;;;;;;34.88;6.65;;;;;;;;;;5035004;28;20037;-75
2023/05/27 00:24:37;;;;;;;26.92;5.88;;;;;;;;;;5034832;28;20048;-76
2023/05/27 00:27:03;;;;;;;36.85;7.07;;;;;;;;;;5034909;28;20017;-75
2023/05/27 00:29:29;;;;;;;38.88;6.40;;;;;;;;;;5034763;28;20026;-73
2023/05/27 00:31:55;;;;;;;31.77;6.07;;;;;;;;;;5034603;28;20022;-75
2023/05/27 00:34:21;;;;;;;32.17;6.70;;;;;;;;;;5035168;28;20101;-75
2023/05/27 00:36:47;;;;;;;34.25;6.05;;;;;;;;;;5036045;28;20022;-74
2023/05/27 00:39:13;;;;;;;37.45;6.70;;;;;;;;;;5035587;28;20040;-73
2023/05/27 00:41:41;;;;;;;29.52;6.10;;;;;;;;;;5035294;28;20470;-74
2023/05/27 00:44:07;;;;;;;37.75;7.72;;;;;;;;;;5034672;28;20407;-74
2023/05/27 00:46:34;;;;;;;36.88;6.78;;;;;;;;;;5034267;28;20447;-75
2023/05/27 00:49:00;;;;;;;27.73;6.47;;;;;;;;;;5034371;28;20026;-74
2023/05/27 00:51:26;;;;;;;30.73;6.43;;;;;;;;;;5033782;28;20032;-74
2023/05/27 00:53:52;;;;;;;28.98;6.13;;;;;;;;;;5033349;28;20503;-74
2023/05/27 00:56:18;;;;;;;33.67;6.55;;;;;;;;;;5034193;28;20036;-75
2023/05/27 00:58:44;;;;;;;27.38;6.22;;;;;;;;;;5034056;28;20029;-74
2023/05/27 01:01:10;;;;;;;33.50;7.60;;;;;;;;;;5034294;28;20025;-75
2023/05/27 01:03:36;;;;;;;37.90;8.48;;;;;;;;;;5034142;28;20025;-75
2023/05/27 01:06:15;;;;;;;30.92;6.78;;;;;;;;;;5034132;28;20471;-74
2023/05/27 01:09:05;;;;;;;33.40;6.53;;;;;;;;;;5032926;28;20372;-75
2023/05/27 01:11:47;;;;;;;29.50;6.55;;;;;;;;;;5033852;28;20040;-75
2023/05/27 01:14:15;;;;;;;29.02;5.97;;;;;;;;;;5032573;28;20472;-74
2023/05/27 01:16:43;;;;;;;28.98;6.80;;;;;;;;;;5033638;28;20100;-75
2023/05/27 01:19:14;;;;;;;29.83;6.80;;;;;;;;;;5033904;28;20029;-76
2023/05/27 01:21:44;;;;;;;34.95;7.03;;;;;;;;;;5033738;28;20056;-75
2023/05/27 01:24:11;;;;;;;29.23;6.15;;;;;;;;;;5033646;28;20028;-74
2023/05/27 01:26:37;;;;;;;37.60;6.50;;;;;;;;;;5033636;28;20099;-74
2023/05/27 01:29:03;;;;;;;37.17;6.53;;;;;;;;;;5032326;28;20025;-73
2023/05/27 01:31:35;;;;;;;31.10;6.45;;;;;;;;;;5033266;28;20076;-74
2023/05/27 01:34:04;;;;;;;30.67;6.72;;;;;;;;;;5033196;28;20029;-74
2023/05/27 01:36:32;;;;;;;30.88;6.22;;;;;;;;;;5033429;28;20025;-74
2023/05/27 01:38:58;;;;;;;34.38;6.28;;;;;;;;;;5033309;28;20476;-75
2023/05/27 01:41:25;;;;;;;39.15;7.60;;;;;;;;;;5033159;28;20029;-74
2023/05/27 01:43:51;;;;;;;38.83;7.60;;;;;;;;;;5032829;28;20032;-74
2023/05/27 01:46:17;;;;;;;38.25;7.43;;;;;;;;;;5033178;28;20085;-75
2023/05/27 01:48:44;;;;;;;34.28;7.75;;;;;;;;;;5033293;28;20060;-76
2023/05/27 01:51:10;;;;;;;31.52;6.80;;;;;;;;;;5031767;28;20510;-74
2023/05/27 01:53:37;;;;;;;27.17;6.68;;;;;;;;;;5032852;28;20407;-76
2023/05/27 01:56:03;;;;;;;33.65;6.45;;;;;;;;;;5033091;28;20025;-76
2023/05/27 01:58:28;;;;;;;36.28;6.32;;;;;;;;;;5031570;28;20395;-76
2023/05/27 02:00:54;;;;;;;31.83;7.10;;;;;;;;;;5032530;28;20075;-74
2023/05/27 02:03:20;;;;;;;36.63;7.32;;;;;;;;;;5031122;28;20407;-75
2023/05/27 02:05:46;;;;;;;36.67;7.70;;;;;;;;;;5031996;28;20022;-75
2023/05/27 02:08:12;;;;;;;38.55;7.07;;;;;;;;;;5032034;28;20028;-75
2023/05/27 02:10:38;;;;;;;27.15;7.32;;;;;;;;;;5035411;28;20033;-74
2023/05/27 02:13:05;;;;;;;37.65;7.88;;;;;;;;;;5050756;28;20029;-74
2023/05/27 02:15:31;;;;;;;36.95;7.50;;;;;;;;;;5051671;28;20048;-73
2023/05/27 02:17:58;;;;;;;32.80;6.82;;;;;;;;;;5051683;28;20037;-74
2023/05/27 02:20:24;;;;;;;36.15;7.72;;;;;;;;;;5051094;28;20031;-72
2023/05/27 02:22:50;;;;;;;30.60;6.88;;;;;;;;;;5050411;28;20021;-73
2023/05/27 02:25:17;;;;;;;33.85;6.82;;;;;;;;;;5051506;28;20048;-74
2023/05/27 02:27:47;;;;;;;36.40;7.00;;;;;;;;;;5051209;28;20025;-73
2023/05/27 02:30:13;;;;;;;33.00;6.65;;;;;;;;;;5051362;28;20075;-74
2023/05/27 02:32:39;;;;;;;37.78;6.65;;;;;;;;;;5050659;28;20040;-73
2023/05/27 02:35:05;;;;;;;28.77;6.85;;;;;;;;;;5051268;28;20029;-72
2023/05/27 02:37:31;;;;;;;34.10;6.78;;;;;;;;;;5050814;28;20362;-73
2023/05/27 02:39:57;;;;;;;36.35;5.85;;;;;;;;;;5051209;28;20025;-74
2023/05/27 02:42:23;;;;;;;31.20;6.15;;;;;;;;;;5050449;28;20438;-73
2023/05/27 02:44:49;;;;;;;30.08;7.05;;;;;;;;;;5051276;28;20055;-72
2023/05/27 02:47:15;;;;;;;27.23;6.75;;;;;;;;;;5050887;28;20028;-73
2023/05/27 02:49:41;;;;;;;34.85;7.10;;;;;;;;;;5050232;28;20106;-73
2023/05/27 02:52:07;;;;;;;37.60;7.85;;;;;;;;;;5050126;28;20104;-73
2023/05/27 02:54:33;;;;;;;39.83;7.55;;;;;;;;;;5050647;28;20381;-73
2023/05/27 02:56:59;;;;;;;28.40;6.57;;;;;;;;;;5050719;28;20057;-73
2023/05/27 02:59:25;;;;;;;26.40;6.38;;;;;;;;;;5050825;28;20411;-74
2023/05/27 03:01:51;;;;;;;28.38;6.43;;;;;;;;;;5049785;28;20025;-74
2023/05/27 03:04:17;;;;;;;30.60;5.95;;;;;;;;;;5050682;28;20541;-74
2023/05/27 03:06:43;;;;;;;27.45;6.22;;;;;;;;;;5050433;28;20100;-74
2023/05/27 03:09:09;;;;;;;35.50;6.95;;;;;;;;;;5051327;28;20064;-78
2023/05/27 03:11:35;;;;;;;30.10;6.78;;;;;;;;;;5050799;28;20017;-73
2023/05/27 03:14:01;;;;;;;31.50;7.13;;;;;;;;;;5050193;28;20033;-74
2023/05/27 03:16:27;;;;;;;35.90;8.15;;;;;;;;;;5049419;28;20065;-73
2023/05/27 03:18:53;;;;;;;28.83;6.38;;;;;;;;;;5050723;28;20017;-73
2023/05/27 03:21:19;;;;;;;32.30;6.53;;;;;;;;;;5050398;28;20383;-75
2023/05/27 03:23:45;;;;;;;33.53;6.70;;;;;;;;;;5050217;28;20100;-73
2023/05/27 03:26:11;;;;;;;31.70;6.88;;;;;;;;;;5050744;28;20453;-74
2023/05/27 03:28:37;;;;;;;37.70;7.10;;;;;;;;;;5049953;28;20048;-74
2023/05/27 03:31:04;;;;;;;28.75;6.38;;;;;;;;;;5050529;28;20087;-74
2023/05/27 03:33:30;;;;;;;25.05;6.53;;;;;;;;;;5049654;28;20539;-74
2023/05/27 03:35:56;;;;;;;35.17;7.20;;;;;;;;;;5050242;28;20104;-73
2023/05/27 03:38:22;;;;;;;28.30;7.05;;;;;;;;;;5050298;28;20025;-75
2023/05/27 03:40:48;;;;;;;34.63;7.07;;;;;;;;;;5049975;28;20386;-75
2023/05/27 03:43:14;;;;;;;24.60;6.75;;;;;;;;;;5050681;28;20039;-73
2023/05/27 03:45:40;;;;;;;30.40;7.20;;;;;;;;;;5051610;28;20033;-73
2023/05/27 03:48:06;;;;;;;29.67;7.43;;;;;;;;;;5051249;28;20029;-74
2023/05/27 03:50:32;;;;;;;29.45;7.03;;;;;;;;;;5051041;28;20083;-72
2023/05/27 03:52:58;;;;;;;33.42;6.75;;;;;;;;;;5051121;28;20032;-76
2023/05/27 03:55:24;;;;;;;36.20;7.38;;;;;;;;;;5052035;28;20132;-73
2023/05/27 03:57:50;;;;;;;28.15;6.78;;;;;;;;;;5051307;28;20029;-74
2023/05/27 04:00:17;;;;;;;32.95;6.95;;;;;;;;;;5051030;28;20108;-74
2023/05/27 04:02:43;;;;;;;22.35;6.35;;;;;;;;;;5050756;28;20013;-73
2023/05/27 04:05:09;;;;;;;31.42;6.80;;;;;;;;;;5051160;28;20021;-72
2023/05/27 04:07:35;;;;;;;36.53;7.15;;;;;;;;;;5050916;28;20490;-74
2023/05/27 04:10:01;;;;;;;36.08;7.18;;;;;;;;;;5050854;28;20033;-74
2023/05/27 04:12:27;;;;;;;25.80;6.57;;;;;;;;;;5050811;28;20044;-73
2023/05/27 04:14:53;;;;;;;29.33;6.90;;;;;;;;;;5051026;28;20036;-73
2023/05/27 04:17:19;;;;;;;30.02;6.75;;;;;;;;;;5051039;28;20052;-75
2023/05/27 04:19:48;;;;;;;30.50;7.60;;;;;;;;;;5050964;28;20466;-74
2023/05/27 04:22:14;;;;;;;28.92;6.95;;;;;;;;;;5050962;28;20414;-73
2023/05/27 04:24:40;;;;;;;36.25;8.70;;;;;;;;;;5051128;28;20104;-74
2023/05/27 04:27:07;;;;;;;20.92;6.30;;;;;;;;;;5053040;28;20021;-74
2023/05/27 04:29:34;;;;;;;25.33;6.55;;;;;;;;;;5054633;28;20021;-74
2023/05/27 04:32:00;;;;;;;22.42;6.55;;;;;;;;;;5054609;28;20082;-74
2023/05/27 04:34:26;;;;;;;31.33;7.03;;;;;;;;;;5054400;28;20544;-74
2023/05/27 04:36:52;;;;;;;31.58;7.53;;;;;;;;;;5054543;28;20037;-74
2023/05/27 04:39:18;;;;;;;32.42;6.72;;;;;;;;;;5054361;28;20036;-74
2023/05/27 04:41:45;;;;;;;31.08;7.00;;;;;;;;;;5054203;28;20414;-73
2023/05/27 04:44:11;;;;;;;31.63;7.65;;;;;;;;;;5054396;28;20021;-75
2023/05/27 04:46:38;;;;;;;29.63;6.82;;;;;;;;;;5054392;28;20021;-75
2023/05/27 04:49:05;;;;;;;30.83;6.95;;;;;;;;;;5037398;28;20028;-73
2023/05/27 04:51:31;;;;;;;32.80;7.20;;;;;;;;;;5029190;28;20132;-74
2023/05/27 04:53:57;;;;;;;34.40;6.93;;;;;;;;;;5033095;28;20029;-75
2023/05/27 04:56:23;;;;;;;27.90;7.10;;;;;;;;;;5032403;28;20025;-74
2023/05/27 04:58:49;;;;;;;30.77;7.05;;;;;;;;;;5034254;28;20024;-73
2023/05/27 05:01:20;;;;;;;33.67;6.75;;;;;;;;;;5035777;28;20079;-74
2023/05/27 05:04:02;;;;;;;27.35;7.20;;;;;;;;;;5034720;28;20056;-75
2023/05/27 05:06:29;;;;;;;31.15;7.40;;;;;;;;;;5033973;28;20024;-76
2023/05/27 05:08:55;;;;;;;39.42;7.00;;;;;;;;;;5033804;28;20036;-76
2023/05/27 05:11:21;;;;;;;32.72;7.40;;;;;;;;;;5033710;28;20068;-76
2023/05/27 05:13:47;;;;;;;34.90;7.60;;;;;;;;;;5031794;28;20033;-76
2023/05/27 05:16:13;;;;;;;23.80;6.53;;;;;;;;;;5033703;28;20029;-75
2023/05/27 05:18:39;;;;;;;24.42;6.18;;;;;;;;;;5033703;28;20025;-75
2023/05/27 05:21:05;;;;;;;31.80;7.70;;;;;;;;;;5033456;28;20063;-74
2023/05/27 05:23:31;;;;;;;27.95;6.88;;;;;;;;;;5032651;28;20108;-72
2023/05/27 05:26:05;;;;;;;27.83;6.90;;;;;;;;;;5034554;28;20116;-71
2023/05/27 05:28:31;;;;;;;37.05;7.63;;;;;;;;;;5034526;28;20430;-73
2023/05/27 05:30:57;;;;;;;32.20;7.18;;;;;;;;;;5035225;28;20075;-73
2023/05/27 05:33:23;;;;;;;30.55;7.07;;;;;;;;;;5033719;28;20045;-72
2023/05/27 05:35:49;;;;;;;27.75;7.22;;;;;;;;;;5033982;28;20083;-72
2023/05/27 05:38:15;;;;;;;31.27;7.15;;;;;;;;;;5033637;28;20018;-74
2023/05/27 05:40:41;;;;;;;30.30;7.70;;;;;;;;;;5034173;28;20380;-73
2023/05/27 05:43:07;;;;;;;32.25;7.80;;;;;;;;;;5033049;28;20035;-73
2023/05/27 05:45:33;;;;;;;33.83;7.28;;;;;;;;;;5028704;28;20018;-74
2023/05/27 05:47:59;;;;;;;29.17;7.60;;;;;;;;;;5033193;28;20395;-74
2023/05/27 05:50:26;;;;;;;31.75;6.93;;;;;;;;;;5032881;28;20029;-72
2023/05/27 05:52:52;;;;;;;38.83;7.72;;;;;;;;;;5024320;28;20025;-74
2023/05/27 05:55:18;;;;;;;31.25;7.50;;;;;;;;;;5030698;28;20399;-73
2023/05/27 05:57:44;;;;;;;35.35;7.47;;;;;;;;;;5032268;28;20029;-73
2023/05/27 06:00:11;;;;;;;33.13;8.15;;;;;;;;;;5032963;28;20052;-74
2023/05/27 06:02:37;;;;;;;39.88;7.50;;;;;;;;;;5032222;28;20025;-74
2023/05/27 06:05:03;;;;;;;32.33;7.57;;;;;;;;;;5032884;28;20021;-73
2023/05/27 06:07:29;;;;;;;34.95;6.88;;;;;;;;;;5032697;28;20030;-74
2023/05/27 06:09:55;;;;;;;27.52;6.72;;;;;;;;;;5032602;28;20057;-72
2023/05/27 06:12:21;;;;;;;34.53;7.68;;;;;;;;;;5032067;28;20025;-74
2023/05/27 06:14:47;;;;;;;32.60;6.93;;;;;;;;;;5033020;28;20018;-73
2023/05/27 06:17:13;;;;;;;34.38;8.20;;;;;;;;;;5034130;28;20022;-76
2023/05/27 06:19:39;;;;;;;38.30;7.70;;;;;;;;;;5035339;28;20029;-74
2023/05/27 06:22:05;;;;;;;39.38;7.40;;;;;;;;;;5033180;28;20017;-74
2023/05/27 06:24:31;;;;;;;32.78;8.38;;;;;;;;;;5034226;28;20487;-72
2023/05/27 06:26:57;;;;;;;35.90;8.20;;;;;;;;;;5038206;28;20033;-74
2023/05/27 06:29:23;;;;;;;48.00;7.75;;;;;;;;;;5036528;28;20025;-74
2023/05/27 06:31:49;;;;;;;29.98;7.30;;;;;;;;;;5039511;28;20068;-74
2023/05/27 06:34:16;;;;;;;34.72;7.60;;;;;;;;;;5035852;28;20061;-74
2023/05/27 06:36:42;;;;;;;39.22;7.43;;;;;;;;;;5034332;28;20048;-74
2023/05/27 06:39:08;;;;;;;34.15;8.60;;;;;;;;;;5034903;28;20029;-73
2023/05/27 06:41:34;;;;;;;44.38;8.55;;;;;;;;;;5034332;28;20471;-74
2023/05/27 06:44:00;;;;;;;40.40;8.48;;;;;;;;;;5039154;28;20147;-74
2023/05/27 06:46:26;;;;;;;42.85;8.40;;;;;;;;;;5036018;28;20025;-72
2023/05/27 06:48:52;;;;;;;39.28;8.38;;;;;;;;;;5034639;28;20025;-73
2023/05/27 06:51:18;;;;;;;41.38;8.02;;;;;;;;;;5035660;28;20112;-74
2023/05/27 06:53:44;;;;;;;40.25;8.55;;;;;;;;;;5035018;28;20068;-75
2023/05/27 06:56:10;;;;;;;33.67;7.38;;;;;;;;;;5036517;28;20025;-75
2023/05/27 06:58:36;;;;;;;29.25;7.13;;;;;;;;;;5035988;28;20067;-73
2023/05/27 07:01:02;;;;;;;30.52;7.88;;;;;;;;;;5035145;28;20029;-73
2023/05/27 07:03:28;;;;;;;32.40;7.30;;;;;;;;;;5032381;28;20027;-73
2023/05/27 07:05:55;;;;;;;34.58;7.63;;;;;;;;;;5033705;28;20446;-73
2023/05/27 07:08:21;;;;;;;33.33;7.72;;;;;;;;;;5036894;28;20030;-72
2023/05/27 07:10:47;;;;;;;28.70;7.25;;;;;;;;;;5036055;28;20057;-72
2023/05/27 07:13:13;;;;;;;38.63;7.88;;;;;;;;;;5034614;28;20037;-73
2023/05/27 07:15:40;;;;;;;30.75;7.70;;;;;;;;;;5032848;28;20021;-73
2023/05/27 07:18:06;;;;;;;39.63;8.18;;;;;;;;;;5032059;28;20387;-73
2023/05/27 07:20:34;;;;;;;29.58;7.05;;;;;;;;;;5031698;28;20029;-73
2023/05/27 07:23:00;;;;;;;36.08;8.57;;;;;;;;;;5031741;28;20563;-73
2023/05/27 07:25:26;;;;;;;39.75;7.43;;;;;;;;;;5032376;28;20049;-73
2023/05/27 07:27:52;;;;;;;34.55;7.28;;;;;;;;;;5032477;28;20102;-73
2023/05/27 07:30:18;;;;;;;36.53;7.28;;;;;;;;;;5032412;28;20417;-74
2023/05/27 07:32:45;;;;;;;34.13;7.53;;;;;;;;;;5031539;28;20021;-74
2023/05/27 07:35:11;;;;;;;41.53;6.95;;;;;;;;;;5031854;28;20387;-75
2023/05/27 07:37:37;;;;;;;25.98;6.28;;;;;;;;;;5031773;28;20139;-73
2023/05/27 07:40:04;;;;;;;37.28;6.25;;;;;;;;;;5033361;28;20037;-74
2023/05/27 07:42:30;;;;;;;35.03;8.23;;;;;;;;;;5032942;28;20688;-73
2023/05/27 07:44:56;;;;;;;32.92;6.97;;;;;;;;;;5032528;28;20026;-74
2023/05/27 07:47:22;;;;;;;38.00;6.82;;;;;;;;;;5032053;28;20079;-73
2023/05/27 07:49:49;;;;;;;29.88;7.00;;;;;;;;;;5031306;28;20049;-73
2023/05/27 07:52:15;;;;;;;34.05;6.93;;;;;;;;;;5033009;28;20028;-73
2023/05/27 07:54:41;;;;;;;34.35;8.63;;;;;;;;;;5034072;28;20490;-74
2023/05/27 07:57:07;;;;;;;39.22;11.50;;;;;;;;;;5017656;28;20029;-74
2023/05/27 07:59:33;;;;;;;40.83;9.55;;;;;;;;;;5036820;28;20022;-73
2023/05/27 08:01:59;;;;;;;36.47;8.60;;;;;;;;;;5032717;28;20029;-74
2023/05/27 08:04:25;;;;;;;39.40;11.23;;;;;;;;;;5035365;28;20018;-73
2023/05/27 08:06:51;;;;;;;32.97;7.03;;;;;;;;;;5036058;28;20167;-74
2023/05/27 08:09:17;;;;;;;40.75;11.43;;;;;;;;;;5035887;28;20033;-75
2023/05/27 08:11:43;;;;;;;42.58;11.02;;;;;;;;;;5035449;28;20510;-73
2023/05/27 08:14:09;;;;;;;43.17;11.48;;;;;;;;;;5038110;28;20037;-74
2023/05/27 08:16:35;;;;;;;70.60;20.15;;;;;;;;;;5040959;28;20052;-73
2023/05/27 08:19:01;;;;;;;60.10;18.00;;;;;;;;;;5040345;28;20026;-74
2023/05/27 08:21:27;;;;;;;42.67;9.68;;;;;;;;;;5040926;28;20033;-74
2023/05/27 08:23:53;;;;;;;33.75;8.48;;;;;;;;;;5040244;28;20025;-73
2023/05/27 08:26:19;;;;;;;54.22;19.38;;;;;;;;;;5037669;28;20026;-72
2023/05/27 08:28:46;;;;;;;46.78;14.50;;;;;;;;;;5034904;28;20032;-73
2023/05/27 08:31:12;;;;;;;75.07;23.50;;;;;;;;;;5034950;28;20435;-73
2023/05/27 08:33:38;;;;;;;39.90;10.48;;;;;;;;;;5034235;28;20036;-72
2023/05/27 08:36:04;;;;;;;35.17;7.63;;;;;;;;;;5034850;28;20081;-72
2023/05/27 08:38:31;;;;;;;38.60;9.98;;;;;;;;;;5034616;28;20021;-73
2023/05/27 08:40:57;;;;;;;40.13;10.43;;;;;;;;;;5034702;28;20030;-73
2023/05/27 08:43:23;;;;;;;37.42;11.38;;;;;;;;;;5034424;28;20028;-73
2023/05/27 08:45:50;;;;;;;39.30;11.13;;;;;;;;;;5035084;28;20028;-74
2023/05/27 08:48:16;;;;;;;39.45;10.63;;;;;;;;;;5034930;28;20021;-73
2023/05/27 08:50:42;;;;;;;34.30;9.88;;;;;;;;;;5034292;28;20103;-73
2023/05/27 08:53:09;;;;;;;33.90;9.48;;;;;;;;;;5034404;28;20025;-73
2023/05/27 08:55:37;;;;;;;25.10;6.80;;;;;;;;;;5040824;28;20480;-72
2023/05/27 08:58:05;;;;;;;23.70;5.68;;;;;;;;;;5037664;28;20034;-73
2023/05/27 09:00:32;;;;;;;28.00;5.93;;;;;;;;;;5036108;28;20111;-73
2023/05/27 09:02:59;;;;;;;36.17;6.93;;;;;;;;;;5033818;28;20487;-73
2023/05/27 09:05:26;;;;;;;26.60;5.38;;;;;;;;;;5034070;28;20029;-72
2023/05/27 09:07:52;;;;;;;29.42;6.05;;;;;;;;;;5034085;28;20030;-73
2023/05/27 09:10:18;;;;;;;23.33;5.90;;;;;;;;;;5033805;28;20029;-74
2023/05/27 09:12:44;;;;;;;29.58;6.30;;;;;;;;;;5030496;28;20030;-74
2023/05/27 09:15:12;;;;;;;52.22;17.60;;;;;;;;;;5033759;28;20045;-73
2023/05/27 09:17:42;;;;;;;38.47;13.63;;;;;;;;;;5033851;28;20021;-74
2023/05/27 09:20:08;;;;;;;32.60;8.20;;;;;;;;;;5033970;28;20118;-74
2023/05/27 09:22:34;;;;;;;32.25;9.02;;;;;;;;;;5033129;28;20100;-74
2023/05/27 09:25:00;;;;;;;32.47;8.93;;;;;;;;;;5034255;28;20022;-73
2023/05/27 09:27:31;;;;;;;39.55;10.43;;;;;;;;;;5034156;28;20108;-73
2023/05/27 09:29:57;;;;;;;39.22;16.17;;;;;;;;;;5035315;28;20455;-73
2023/05/27 09:32:27;;;;;;;37.60;12.00;;;;;;;;;;5034898;28;20443;-74
2023/05/27 09:34:54;;;;;;;36.03;8.77;;;;;;;;;;5036638;28;20026;-73
2023/05/27 09:37:21;;;;;;;25.23;7.28;;;;;;;;;;5036059;28;20033;-73
2023/05/27 09:39:48;;;;;;;31.02;6.13;;;;;;;;;;5033782;28;20017;-74
2023/05/27 09:42:14;;;;;;;24.42;7.07;;;;;;;;;;5030970;28;20143;-73
2023/05/27 09:44:40;;;;;;;31.63;6.85;;;;;;;;;;5033751;28;20025;-72
2023/05/27 09:47:09;;;;;;;26.98;5.95;;;;;;;;;;5033087;28;20104;-73
2023/05/27 09:49:37;;;;;;;26.38;5.63;;;;;;;;;;5032171;28;20479;-74
2023/05/27 09:52:04;;;;;;;27.88;6.03;;;;;;;;;;5033232;28;20558;-72
2023/05/27 09:54:30;;;;;;;28.60;6.70;;;;;;;;;;5032975;28;20021;-73
2023/05/27 09:56:57;;;;;;;22.42;6.82;;;;;;;;;;5032771;28;20033;-72
2023/05/27 09:59:23;;;;;;;26.13;5.97;;;;;;;;;;5033380;28;20022;-72
2023/05/27 10:01:51;;;;;;;28.67;6.45;;;;;;;;;;5032720;28;20021;-72
2023/05/27 10:04:17;;;;;;;23.65;5.93;;;;;;;;;;5033285;28;20091;-75
2023/05/27 10:06:45;;;;;;;32.00;6.15;;;;;;;;;;5033150;28;20101;-72
2023/05/27 10:09:13;;;;;;;22.83;5.63;;;;;;;;;;5032577;28;20032;-73
2023/05/27 10:11:40;;;;;;;19.05;5.40;;;;;;;;;;5032449;28;20027;-71
2023/05/27 10:14:06;;;;;;;21.65;5.85;;;;;;;;;;5033755;28;20105;-73
2023/05/27 10:16:33;;;;;;;28.92;5.97;;;;;;;;;;5033232;28;20029;-74
2023/05/27 10:18:59;;;;;;;26.13;6.43;;;;;;;;;;5037148;28;20030;-73
2023/05/27 10:21:30;;;;;;;24.75;6.25;;;;;;;;;;5035786;28;20048;-74
2023/05/27 10:24:00;;;;;;;23.90;6.82;;;;;;;;;;5034583;28;20108;-74
2023/05/27 10:26:33;;;;;;;28.60;6.70;;;;;;;;;;5035113;28;20109;-73
2023/05/27 10:29:06;;;;;;;26.33;6.10;;;;;;;;;;5036321;28;20388;-75
2023/05/27 10:31:32;;;;;;;28.10;6.35;;;;;;;;;;5036198;28;20041;-74
2023/05/27 10:33:58;;;;;;;24.02;6.28;;;;;;;;;;5034907;28;20076;-73
2023/05/27 10:36:33;;;;;;;24.17;5.80;;;;;;;;;;5034553;28;20053;-74
2023/05/27 10:39:02;;;;;;;31.80;7.00;;;;;;;;;;5036036;28;20041;-73
2023/05/27 10:41:28;;;;;;;27.38;7.28;;;;;;;;;;5037489;28;20084;-74
2023/05/27 10:43:56;;;;;;;29.17;6.25;;;;;;;;;;5038342;28;20056;-74
2023/05/27 10:46:22;;;;;;;30.27;6.95;;;;;;;;;;5037425;28;20087;-74
2023/05/27 10:48:48;;;;;;;20.50;6.00;;;;;;;;;;5037952;28;20545;-73
2023/05/27 10:51:14;;;;;;;24.73;7.05;;;;;;;;;;5035523;28;20030;-75
2023/05/27 10:53:40;;;;;;;25.23;6.63;;;;;;;;;;5033136;28;20380;-75
2023/05/27 10:56:08;;;;;;;26.88;6.53;;;;;;;;;;5033016;28;20121;-74
2023/05/27 10:58:35;;;;;;;27.38;6.53;;;;;;;;;;5033054;28;20036;-74
2023/05/27 11:01:03;;;;;;;30.27;6.63;;;;;;;;;;5032838;28;20021;-75
2023/05/27 11:03:29;;;;;;;24.80;6.95;;;;;;;;;;5034082;28;20399;-73
2023/05/27 11:06:02;;;;;;;30.88;11.13;;;;;;;;;;5033700;28;20022;-73
2023/05/27 11:08:28;;;;;;;22.15;7.15;;;;;;;;;;5032916;28;20025;-74
2023/05/27 11:11:07;;;;;;;22.25;6.35;;;;;;;;;;5032109;28;20060;-75
2023/05/27 11:13:34;;;;;;;20.00;6.32;;;;;;;;;;5035775;28;20474;-75
2023/05/27 11:16:01;;;;;;;19.88;6.07;;;;;;;;;;5034196;28;20383;-73
2023/05/27 11:18:44;;;;;;;21.52;6.82;;;;;;;;;;5031943;28;20036;-74
2023/05/27 11:21:11;;;;;;;26.52;8.13;;;;;;;;;;5034631;28;20167;-74
2023/05/27 11:23:43;;;;;;;28.98;7.22;;;;;;;;;;5034245;28;20434;-74
2023/05/27 11:26:13;;;;;;;27.10;6.65;;;;;;;;;;5034476;28;20028;-74
2023/05/27 11:28:45;;;;;;;23.45;5.93;;;;;;;;;;5034285;28;20022;-78
2023/05/27 11:31:11;;;;;;;28.65;7.40;;;;;;;;;;5034595;28;20022;-75
2023/05/27 11:33:41;;;;;;;24.75;6.55;;;;;;;;;;5032463;28;20025;-74
2023/05/27 11:36:08;;;;;;;19.55;5.97;;;;;;;;;;5031906;28;20416;-74
2023/05/27 11:38:47;;;;;;;23.88;5.70;;;;;;;;;;5034030;28;20029;-73
2023/05/27 11:41:13;;;;;;;23.98;6.15;;;;;;;;;;5033685;28;20021;-75
2023/05/27 11:43:58;;;;;;;24.58;6.18;;;;;;;;;;5034657;28;20040;-75
2023/05/27 11:46:24;;;;;;;;;;;;;;;;;;5033999;28;20025;-74
2023/05/27 11:48:50;;;;;;;25.02;6.78;;;;;;;;;;5036168;28;19905;-76
2023/05/27 11:51:16;;;;;;;19.98;5.95;;;;;;;;;;5033520;28;20043;-75
2023/05/27 11:53:46;;;;;;;21.75;5.85;;;;;;;;;;5036517;28;20089;-75
2023/05/27 11:56:12;;;;;;;26.95;6.13;;;;;;;;;;5035686;28;20029;-75
2023/05/27 11:58:38;;;;;;;22.60;6.57;;;;;;;;;;5033902;28;20030;-73
2023/05/27 12:01:05;;;;;;;25.33;6.65;;;;;;;;;;5033644;28;20064;-75
2023/05/27 12:03:33;;;;;;;25.40;6.53;;;;;;;;;;5031449;28;20018;-75
2023/05/27 12:05:59;;;;;;;21.52;6.00;;;;;;;;;;5032252;28;20145;-74
2023/05/27 12:08:25;;;;;;;23.63;6.15;;;;;;;;;;5032422;28;20068;-74
2023/05/27 12:10:53;;;;;;;23.08;6.50;;;;;;;;;;5031889;28;20029;-75
2023/05/27 12:13:21;;;;;;;23.35;6.03;;;;;;;;;;5032460;28;20026;-75
2023/05/27 12:15:47;;;;;;;19.42;5.97;;;;;;;;;;5031949;28;20033;-74
2023/05/27 12:18:13;;;;;;;17.77;4.97;;;;;;;;;;5031973;28;20030;-73
2023/05/27 12:20:39;;;;;;;23.73;6.10;;;;;;;;;;5031429;28;20029;-75
2023/05/27 12:23:05;;;;;;;23.35;5.95;;;;;;;;;;5031115;28;20546;-74
2023/05/27 12:25:31;;;;;;;23.35;6.22;;;;;;;;;;5032203;28;20025;-75
2023/05/27 12:27:58;;;;;;;22.52;6.03;;;;;;;;;;5031870;28;20028;-73
2023/05/27 12:30:24;;;;;;;18.35;5.32;;;;;;;;;;5030222;28;20583;-74
2023/05/27 12:32:50;;;;;;;16.45;5.40;;;;;;;;;;5034129;28;20029;-74
2023/05/27 12:35:16;;;;;;;18.02;5.40;;;;;;;;;;5032943;28;20110;-74
2023/05/27 12:37:42;;;;;;;23.83;5.97;;;;;;;;;;5032848;28;20026;-74
2023/05/27 12:40:12;;;;;;;22.95;6.00;;;;;;;;;;5032817;28;20033;-73
2023/05/27 12:42:38;;;;;;;20.55;6.15;;;;;;;;;;5034683;28;20104;-74
2023/05/27 12:45:04;;;;;;;20.15;5.38;;;;;;;;;;5031373;28;20456;-73
2023/05/27 12:47:30;;;;;;;22.63;5.55;;;;;;;;;;5031271;28;20044;-75
2023/05/27 12:49:57;;;;;;;20.75;5.57;;;;;;;;;;5035431;28;20026;-75
2023/05/27 12:52:23;;;;;;;27.85;6.35;;;;;;;;;;5044668;28;20101;-75
2023/05/27 12:54:49;;;;;;;20.63;5.32;;;;;;;;;;5035719;28;20107;-74
2023/05/27 12:57:15;;;;;;;23.52;6.05;;;;;;;;;;5035956;28;20025;-75
2023/05/27 12:59:41;;;;;;;24.27;6.10;;;;;;;;;;5035921;28;20085;-75
2023/05/27 13:02:07;;;;;;;22.02;5.93;;;;;;;;;;5036081;28;20064;-73
2023/05/27 13:04:34;;;;;;;20.75;5.35;;;;;;;;;;5034252;28;20061;-75
2023/05/27 13:07:00;;;;;;;22.58;6.82;;;;;;;;;;5034369;28;20033;-73
2023/05/27 13:09:26;;;;;;;19.85;5.70;;;;;;;;;;5034176;28;20132;-74
2023/05/27 13:11:52;;;;;;;22.08;6.95;;;;;;;;;;5033586;28;20053;-73
2023/05/27 13:14:18;;;;;;;24.55;6.10;;;;;;;;;;5033886;28;20055;-74
2023/05/27 13:16:44;;;;;;;20.88;5.45;;;;;;;;;;5034253;28;20113;-72
2023/05/27 13:19:10;;;;;;;26.15;6.82;;;;;;;;;;5034593;28;20383;-73
2023/05/27 13:21:36;;;;;;;25.25;7.13;;;;;;;;;;5033850;28;20033;-73
2023/05/27 13:24:02;;;;;;;24.13;6.63;;;;;;;;;;5034500;28;20047;-73
2023/05/27 13:26:30;;;;;;;25.17;5.60;;;;;;;;;;5042267;28;20065;-74
2023/05/27 13:28:56;;;;;;;30.50;6.93;;;;;;;;;;5035561;28;20017;-73
2023/05/27 13:31:22;;;;;;;20.45;5.60;;;;;;;;;;5035235;28;20025;-74
2023/05/27 13:33:48;;;;;;;16.15;5.55;;;;;;;;;;5033673;28;20107;-72
2023/05/27 13:36:14;;;;;;;22.13;5.72;;;;;;;;;;5033783;28;20101;-72
2023/05/27 13:38:40;;;;;;;22.70;6.05;;;;;;;;;;5034086;28;20438;-74
2023/05/27 13:41:06;;;;;;;21.38;5.93;;;;;;;;;;5037038;28;20033;-73
2023/05/27 13:43:32;;;;;;;17.33;5.38;;;;;;;;;;5035907;28;20620;-74
2023/05/27 13:45:58;;;;;;;19.38;5.13;;;;;;;;;;5033788;28;20083;-74
2023/05/27 13:48:24;;;;;;;18.58;5.68;;;;;;;;;;5033806;28;20495;-74
2023/05/27 13:50:50;;;;;;;20.75;5.20;;;;;;;;;;5033480;28;20037;-73
2023/05/27 13:53:16;;;;;;;16.75;5.22;;;;;;;;;;5032871;28;20116;-74
2023/05/27 13:55:43;;;;;;;22.45;5.68;;;;;;;;;;5034041;28;20057;-73
2023/05/27 13:58:09;;;;;;;26.08;6.03;;;;;;;;;;5034945;28;20026;-73
2023/05/27 14:00:35;;;;;;;19.30;5.32;;;;;;;;;;5034495;28;20483;-73
2023/05/27 14:03:01;;;;;;;19.33;4.95;;;;;;;;;;5037159;28;20025;-73
2023/05/27 14:05:28;;;;;;;21.98;5.85;;;;;;;;;;5041214;28;20029;-76
2023/05/27 14:07:54;;;;;;;20.35;5.97;;;;;;;;;;5037226;28;20472;-74
2023/05/27 14:10:20;;;;;;;19.73;5.63;;;;;;;;;;5033975;28;20025;-75
2023/05/27 14:12:46;;;;;;;18.50;6.55;;;;;;;;;;5034031;28;20061;-74
2023/05/27 14:15:12;;;;;;;24.92;7.20;;;;;;;;;;5030534;28;20029;-75
2023/05/27 14:17:38;;;;;;;18.13;5.50;;;;;;;;;;5037710;28;20056;-76
2023/05/27 14:20:10;;;;;;;22.40;5.07;;;;;;;;;;5037071;28;20026;-74
2023/05/27 14:22:36;;;;;;;18.48;5.55;;;;;;;;;;5021197;28;20387;-75
2023/05/27 14:25:02;;;;;;;17.27;5.32;;;;;;;;;;5042019;28;20026;-76